sensor_id;sensor_type;location;lat;lon;timestamp;temperature;humidity
41985;DHT22;28319;48.116;10.818;2022-11-20T00:02:47;4.90;99.90
41985;DHT22;28319;48.116;10.818;2022-11-20T00:07:49;4.90;99.90
41985;DHT22;28319;48.116;10.818;2022-11-20T00:12:51;4.90;99.90
41985;DHT22;28319;48.116;10.818;2022-11-20T00:17:55;4.90;99.90
41985;DHT22;28319;48.116;10.818;2022-11-20T00:22:57;4.90;99.90
41985;DHT22;28319;48.116;10.818;2022-11-20T00:27:59;4.90;99.90
41985;DHT22;28319;48.116;10.818;2022-11-20T00:33:03;4.90;99.90
41985;DHT22;28319;48.116;10.818;2022-11-20T00:38:05;4.90;99.90
41985;DHT22;28319;48.116;10.818;2022-11-20T00:43:07;5.00;99.90
41985;DHT22;28319;48.116;10.818;2022-11-20T00:48:10;5.00;99.90
41985;DHT22;28319;48.116;10.818;2022-11-20T00:53:12;5.10;99.90
41985;DHT22;28319;48.116;10.818;2022-11-20T00:58:14;5.10;99.90
41985;DHT22;28319;48.116;10.818;2022-11-20T01:03:18;5.10;99.90
41985;DHT22;28319;48.116;10.818;2022-11-20T01:08:20;5.10;99.90
41985;DHT22;28319;48.116;10.818;2022-11-20T01:13:22;5.10;99.90
41985;DHT22;28319;48.116;10.818;2022-11-20T01:18:42;5.10;99.90
41985;DHT22;28319;48.116;10.818;2022-11-20T01:23:45;5.00;99.90
41985;DHT22;28319;48.116;10.818;2022-11-20T01:28:48;5.00;99.90
41985;DHT22;28319;48.116;10.818;2022-11-20T01:33:53;5.00;99.90
41985;DHT22;28319;48.116;10.818;2022-11-20T01:38:57;4.90;99.90
41985;DHT22;28319;48.116;10.818;2022-11-20T01:43:59;4.90;99.90
41985;DHT22;28319;48.116;10.818;2022-11-20T01:49:05;4.90;99.90
41985;DHT22;28319;48.116;10.818;2022-11-20T01:54:14;4.80;99.90
41985;DHT22;28319;48.116;10.818;2022-11-20T01:59:19;4.80;99.90
41985;DHT22;28319;48.116;10.818;2022-11-20T02:04:24;4.70;99.90
41985;DHT22;28319;48.116;10.818;2022-11-20T02:09:28;4.70;99.90
41985;DHT22;28319;48.116;10.818;2022-11-20T02:14:30;4.70;99.90
41985;DHT22;28319;48.116;10.818;2022-11-20T02:19:33;4.70;99.90
41985;DHT22;28319;48.116;10.818;2022-11-20T02:24:37;4.70;99.90
41985;DHT22;28319;48.116;10.818;2022-11-20T02:29:42;4.60;99.90
41985;DHT22;28319;48.116;10.818;2022-11-20T02:34:46;4.70;99.90
41985;DHT22;28319;48.116;10.818;2022-11-20T02:39:51;4.70;99.90
41985;DHT22;28319;48.116;10.818;2022-11-20T02:44:53;4.80;99.90
41985;DHT22;28319;48.116;10.818;2022-11-20T02:49:55;4.80;99.90
41985;DHT22;28319;48.116;10.818;2022-11-20T02:54:59;4.80;99.90
41985;DHT22;28319;48.116;10.818;2022-11-20T03:00:02;4.80;99.90
41985;DHT22;28319;48.116;10.818;2022-11-20T03:05:04;4.80;99.90
41985;DHT22;28319;48.116;10.818;2022-11-20T03:10:09;4.80;99.90
41985;DHT22;28319;48.116;10.818;2022-11-20T03:15:12;4.90;99.90
41985;DHT22;28319;48.116;10.818;2022-11-20T03:20:16;4.90;99.90
41985;DHT22;28319;48.116;10.818;2022-11-20T03:25:20;4.90;99.90
41985;DHT22;28319;48.116;10.818;2022-11-20T03:30:23;4.90;99.90
41985;DHT22;28319;48.116;10.818;2022-11-20T03:35:25;4.90;99.90
41985;DHT22;28319;48.116;10.818;2022-11-20T03:40:29;4.90;99.90
41985;DHT22;28319;48.116;10.818;2022-11-20T03:45:31;4.90;99.90
41985;DHT22;28319;48.116;10.818;2022-11-20T03:50:35;4.90;99.90
41985;DHT22;28319;48.116;10.818;2022-11-20T03:55:39;4.90;99.90
41985;DHT22;28319;48.116;10.818;2022-11-20T04:00:41;4.90;99.90
41985;DHT22;28319;48.116;10.818;2022-11-20T04:05:43;4.90;99.90
41985;DHT22;28319;48.116;10.818;2022-11-20T04:10:47;4.90;99.90
41985;DHT22;28319;48.116;10.818;2022-11-20T04:15:49;4.90;99.90
41985;DHT22;28319;48.116;10.818;2022-11-20T04:20:52;4.90;99.90
41985;DHT22;28319;48.116;10.818;2022-11-20T04:26:01;4.90;99.90
41985;DHT22;28319;48.116;10.818;2022-11-20T04:31:05;4.90;99.90
41985;DHT22;28319;48.116;10.818;2022-11-20T04:36:11;4.90;99.90
41985;DHT22;28319;48.116;10.818;2022-11-20T04:41:16;4.90;99.90
41985;DHT22;28319;48.116;10.818;2022-11-20T04:46:20;4.90;99.90
41985;DHT22;28319;48.116;10.818;2022-11-20T04:51:22;4.90;99.90
41985;DHT22;28319;48.116;10.818;2022-11-20T04:56:26;4.90;99.90
41985;DHT22;28319;48.116;10.818;2022-11-20T05:06:33;4.80;99.90
41985;DHT22;28319;48.116;10.818;2022-11-20T05:11:36;4.80;99.90
41985;DHT22;28319;48.116;10.818;2022-11-20T05:16:38;4.70;99.90
41985;DHT22;28319;48.116;10.818;2022-11-20T05:21:40;4.70;99.90
41985;DHT22;28319;48.116;10.818;2022-11-20T05:26:46;4.70;99.90
41985;DHT22;28319;48.116;10.818;2022-11-20T05:31:48;4.60;99.90
41985;DHT22;28319;48.116;10.818;2022-11-20T05:36:51;4.60;99.90
41985;DHT22;28319;48.116;10.818;2022-11-20T05:41:55;4.60;99.90
41985;DHT22;28319;48.116;10.818;2022-11-20T05:47:11;4.60;99.90
41985;DHT22;28319;48.116;10.818;2022-11-20T05:52:14;4.50;99.90
41985;DHT22;28319;48.116;10.818;2022-11-20T05:57:17;4.50;99.90
41985;DHT22;28319;48.116;10.818;2022-11-20T06:02:19;4.50;99.90
41985;DHT22;28319;48.116;10.818;2022-11-20T06:07:22;4.50;99.90
41985;DHT22;28319;48.116;10.818;2022-11-20T06:12:25;4.50;99.90
41985;DHT22;28319;48.116;10.818;2022-11-20T06:17:27;4.50;99.90
41985;DHT22;28319;48.116;10.818;2022-11-20T06:22:29;4.50;99.90
41985;DHT22;28319;48.116;10.818;2022-11-20T06:27:33;4.60;99.90
41985;DHT22;28319;48.116;10.818;2022-11-20T06:32:35;4.60;99.90
41985;DHT22;28319;48.116;10.818;2022-11-20T06:37:37;4.60;99.90
41985;DHT22;28319;48.116;10.818;2022-11-20T06:42:41;4.60;99.90
41985;DHT22;28319;48.116;10.818;2022-11-20T06:47:43;4.70;99.90
41985;DHT22;28319;48.116;10.818;2022-11-20T06:52:46;4.70;99.90
41985;DHT22;28319;48.116;10.818;2022-11-20T06:57:50;4.70;99.90
41985;DHT22;28319;48.116;10.818;2022-11-20T07:02:53;4.70;99.90
41985;DHT22;28319;48.116;10.818;2022-11-20T07:07:56;4.70;99.90
41985;DHT22;28319;48.116;10.818;2022-11-20T07:12:59;4.70;99.90
41985;DHT22;28319;48.116;10.818;2022-11-20T07:18:02;4.80;99.90
41985;DHT22;28319;48.116;10.818;2022-11-20T07:23:04;4.80;99.90
41985;DHT22;28319;48.116;10.818;2022-11-20T07:28:07;4.80;99.90
41985;DHT22;28319;48.116;10.818;2022-11-20T07:33:11;4.90;99.90
41985;DHT22;28319;48.116;10.818;2022-11-20T07:38:13;4.90;99.90
41985;DHT22;28319;48.116;10.818;2022-11-20T07:43:17;4.90;99.90
41985;DHT22;28319;48.116;10.818;2022-11-20T07:48:19;5.00;99.90
41985;DHT22;28319;48.116;10.818;2022-11-20T07:53:21;5.00;99.90
41985;DHT22;28319;48.116;10.818;2022-11-20T07:58:24;5.10;99.90
41985;DHT22;28319;48.116;10.818;2022-11-20T08:03:26;5.20;99.90
41985;DHT22;28319;48.116;10.818;2022-11-20T08:08:29;5.30;99.90
41985;DHT22;28319;48.116;10.818;2022-11-20T08:13:33;5.40;99.90
41985;DHT22;28319;48.116;10.818;2022-11-20T08:18:53;5.50;99.90
41985;DHT22;28319;48.116;10.818;2022-11-20T08:23:55;5.50;99.90
41985;DHT22;28319;48.116;10.818;2022-11-20T08:28:59;5.50;99.90
41985;DHT22;28319;48.116;10.818;2022-11-20T08:34:01;5.50;99.90
41985;DHT22;28319;48.116;10.818;2022-11-20T08:39:03;5.50;99.90
41985;DHT22;28319;48.116;10.818;2022-11-20T08:44:08;5.60;99.90
41985;DHT22;28319;48.116;10.818;2022-11-20T08:49:11;5.60;99.90
41985;DHT22;28319;48.116;10.818;2022-11-20T08:54:14;5.60;99.90
41985;DHT22;28319;48.116;10.818;2022-11-20T08:59:19;5.60;99.90
41985;DHT22;28319;48.116;10.818;2022-11-20T09:04:21;5.80;99.90
41985;DHT22;28319;48.116;10.818;2022-11-20T09:09:23;5.90;99.90
41985;DHT22;28319;48.116;10.818;2022-11-20T09:14:27;5.80;99.90
41985;DHT22;28319;48.116;10.818;2022-11-20T09:19:30;6.20;99.90
41985;DHT22;28319;48.116;10.818;2022-11-20T09:24:32;6.60;99.90
41985;DHT22;28319;48.116;10.818;2022-11-20T09:29:36;6.50;99.90
41985;DHT22;28319;48.116;10.818;2022-11-20T09:34:38;6.60;99.90
41985;DHT22;28319;48.116;10.818;2022-11-20T09:39:40;6.50;99.90
41985;DHT22;28319;48.116;10.818;2022-11-20T09:45:04;6.40;99.90
41985;DHT22;28319;48.116;10.818;2022-11-20T09:50:23;6.50;99.90
41985;DHT22;28319;48.116;10.818;2022-11-20T09:55:27;7.10;99.90
41985;DHT22;28319;48.116;10.818;2022-11-20T10:00:31;7.20;99.90
41985;DHT22;28319;48.116;10.818;2022-11-20T10:05:37;7.00;99.90
41985;DHT22;28319;48.116;10.818;2022-11-20T10:10:44;6.80;99.90
41985;DHT22;28319;48.116;10.818;2022-11-20T10:15:57;6.60;99.90
41985;DHT22;28319;48.116;10.818;2022-11-20T10:21:09;6.50;99.90
41985;DHT22;28319;48.116;10.818;2022-11-20T10:26:20;6.30;99.90
41985;DHT22;28319;48.116;10.818;2022-11-20T10:31:31;6.30;99.90
41985;DHT22;28319;48.116;10.818;2022-11-20T10:36:39;6.30;99.90
41985;DHT22;28319;48.116;10.818;2022-11-20T10:41:42;6.30;99.90
41985;DHT22;28319;48.116;10.818;2022-11-20T10:46:48;6.40;99.90
41985;DHT22;28319;48.116;10.818;2022-11-20T10:51:58;6.40;99.90
41985;DHT22;28319;48.116;10.818;2022-11-20T10:57:12;6.30;99.90
41985;DHT22;28319;48.116;10.818;2022-11-20T11:02:21;6.30;99.90
41985;DHT22;28319;48.116;10.818;2022-11-20T11:07:24;6.30;99.90
41985;DHT22;28319;48.116;10.818;2022-11-20T11:12:28;6.30;99.90
41985;DHT22;28319;48.116;10.818;2022-11-20T11:17:34;6.30;99.90
41985;DHT22;28319;48.116;10.818;2022-11-20T11:22:45;6.20;99.90
41985;DHT22;28319;48.116;10.818;2022-11-20T11:27:49;6.20;99.90
41985;DHT22;28319;48.116;10.818;2022-11-20T11:33:02;6.10;99.90
41985;DHT22;28319;48.116;10.818;2022-11-20T11:38:06;6.10;99.90
41985;DHT22;28319;48.116;10.818;2022-11-20T11:43:19;6.00;99.90
41985;DHT22;28319;48.116;10.818;2022-11-20T11:48:41;5.90;99.90
41985;DHT22;28319;48.116;10.818;2022-11-20T11:53:43;5.90;99.90
41985;DHT22;28319;48.116;10.818;2022-11-20T11:58:47;5.90;99.90
41985;DHT22;28319;48.116;10.818;2022-11-20T12:03:59;5.90;99.90
41985;DHT22;28319;48.116;10.818;2022-11-20T12:09:07;5.90;99.90
41985;DHT22;28319;48.116;10.818;2022-11-20T12:14:14;5.90;99.90
41985;DHT22;28319;48.116;10.818;2022-11-20T12:19:21;5.90;99.90
41985;DHT22;28319;48.116;10.818;2022-11-20T12:24:47;5.90;99.90
41985;DHT22;28319;48.116;10.818;2022-11-20T12:29:57;6.10;99.90
41985;DHT22;28319;48.116;10.818;2022-11-20T12:35:25;6.10;99.90
41985;DHT22;28319;48.116;10.818;2022-11-20T12:40:38;6.20;99.90
41985;DHT22;28319;48.116;10.818;2022-11-20T12:45:54;6.10;99.90
41985;DHT22;28319;48.116;10.818;2022-11-20T12:56:51;6.10;99.90
41985;DHT22;28319;48.116;10.818;2022-11-20T13:02:01;6.10;99.90
41985;DHT22;28319;48.116;10.818;2022-11-20T13:07:10;6.10;99.90
41985;DHT22;28319;48.116;10.818;2022-11-20T13:12:15;6.10;99.90
41985;DHT22;28319;48.116;10.818;2022-11-20T13:17:24;6.10;99.90
41985;DHT22;28319;48.116;10.818;2022-11-20T13:22:43;6.10;99.90
41985;DHT22;28319;48.116;10.818;2022-11-20T13:27:47;6.10;99.90
41985;DHT22;28319;48.116;10.818;2022-11-20T13:32:53;6.10;99.90
41985;DHT22;28319;48.116;10.818;2022-11-20T13:38:03;6.20;99.90
41985;DHT22;28319;48.116;10.818;2022-11-20T13:43:19;6.30;99.90
41985;DHT22;28319;48.116;10.818;2022-11-20T13:48:23;6.30;99.90
41985;DHT22;28319;48.116;10.818;2022-11-20T13:53:46;6.30;99.90
41985;DHT22;28319;48.116;10.818;2022-11-20T13:58:59;6.10;99.90
41985;DHT22;28319;48.116;10.818;2022-11-20T14:04:07;6.00;99.90
41985;DHT22;28319;48.116;10.818;2022-11-20T14:09:24;6.30;99.90
41985;DHT22;28319;48.116;10.818;2022-11-20T14:14:27;5.90;99.90
41985;DHT22;28319;48.116;10.818;2022-11-20T14:19:30;5.90;99.90
41985;DHT22;28319;48.116;10.818;2022-11-20T14:24:34;5.90;99.90
41985;DHT22;28319;48.116;10.818;2022-11-20T14:29:37;5.90;99.90
41985;DHT22;28319;48.116;10.818;2022-11-20T14:34:44;5.90;99.90
41985;DHT22;28319;48.116;10.818;2022-11-20T14:39:53;5.90;99.90
41985;DHT22;28319;48.116;10.818;2022-11-20T14:44:57;6.00;99.90
41985;DHT22;28319;48.116;10.818;2022-11-20T14:50:01;6.00;99.90
41985;DHT22;28319;48.116;10.818;2022-11-20T14:55:05;6.10;99.90
41985;DHT22;28319;48.116;10.818;2022-11-20T15:00:18;6.10;99.90
41985;DHT22;28319;48.116;10.818;2022-11-20T15:05:23;6.10;99.90
41985;DHT22;28319;48.116;10.818;2022-11-20T15:10:27;6.00;99.90
41985;DHT22;28319;48.116;10.818;2022-11-20T15:15:31;6.10;99.90
41985;DHT22;28319;48.116;10.818;2022-11-20T15:20:35;6.00;99.90
41985;DHT22;28319;48.116;10.818;2022-11-20T15:25:40;5.90;99.90
41985;DHT22;28319;48.116;10.818;2022-11-20T15:30:42;5.80;99.90
41985;DHT22;28319;48.116;10.818;2022-11-20T15:35:44;5.80;99.90
41985;DHT22;28319;48.116;10.818;2022-11-20T15:40:48;5.70;99.90
41985;DHT22;28319;48.116;10.818;2022-11-20T15:45:53;5.60;99.90
41985;DHT22;28319;48.116;10.818;2022-11-20T15:50:59;5.50;99.90
41985;DHT22;28319;48.116;10.818;2022-11-20T15:56:04;5.40;99.90
41985;DHT22;28319;48.116;10.818;2022-11-20T16:01:10;5.40;99.90
41985;DHT22;28319;48.116;10.818;2022-11-20T16:06:12;5.40;99.90
41985;DHT22;28319;48.116;10.818;2022-11-20T16:11:17;5.40;99.90
41985;DHT22;28319;48.116;10.818;2022-11-20T16:16:21;5.30;99.90
41985;DHT22;28319;48.116;10.818;2022-11-20T16:21:24;5.30;99.90
41985;DHT22;28319;48.116;10.818;2022-11-20T16:26:33;5.30;99.90
41985;DHT22;28319;48.116;10.818;2022-11-20T16:31:35;5.20;99.90
41985;DHT22;28319;48.116;10.818;2022-11-20T16:36:39;5.10;99.90
41985;DHT22;28319;48.116;10.818;2022-11-20T16:41:43;5.10;99.90
41985;DHT22;28319;48.116;10.818;2022-11-20T16:46:45;5.10;99.90
41985;DHT22;28319;48.116;10.818;2022-11-20T16:51:47;5.10;99.90
41985;DHT22;28319;48.116;10.818;2022-11-20T16:56:51;5.00;99.90
41985;DHT22;28319;48.116;10.818;2022-11-20T17:01:53;4.90;99.90
41985;DHT22;28319;48.116;10.818;2022-11-20T17:06:56;4.90;99.90
41985;DHT22;28319;48.116;10.818;2022-11-20T17:12:00;4.80;99.90
41985;DHT22;28319;48.116;10.818;2022-11-20T17:17:02;5.00;99.90
41985;DHT22;28319;48.116;10.818;2022-11-20T17:22:04;4.60;99.90
41985;DHT22;28319;48.116;10.818;2022-11-20T17:27:08;4.60;99.90
41985;DHT22;28319;48.116;10.818;2022-11-20T17:32:10;4.50;99.90
41985;DHT22;28319;48.116;10.818;2022-11-20T17:37:12;4.50;99.90
41985;DHT22;28319;48.116;10.818;2022-11-20T17:42:15;4.50;99.90
41985;DHT22;28319;48.116;10.818;2022-11-20T17:47:36;4.40;99.90
41985;DHT22;28319;48.116;10.818;2022-11-20T17:52:38;4.40;99.90
41985;DHT22;28319;48.116;10.818;2022-11-20T17:57:41;4.40;99.90
41985;DHT22;28319;48.116;10.818;2022-11-20T18:02:57;4.40;99.90
41985;DHT22;28319;48.116;10.818;2022-11-20T18:08:00;4.30;99.90
41985;DHT22;28319;48.116;10.818;2022-11-20T18:13:03;4.40;99.90
41985;DHT22;28319;48.116;10.818;2022-11-20T18:18:05;4.40;99.90
41985;DHT22;28319;48.116;10.818;2022-11-20T18:23:07;4.30;99.90
41985;DHT22;28319;48.116;10.818;2022-11-20T18:28:11;4.20;99.90
41985;DHT22;28319;48.116;10.818;2022-11-20T18:33:13;4.30;99.90
41985;DHT22;28319;48.116;10.818;2022-11-20T18:38:15;4.30;99.90
41985;DHT22;28319;48.116;10.818;2022-11-20T18:43:19;4.30;99.90
41985;DHT22;28319;48.116;10.818;2022-11-20T18:48:39;4.40;99.90
41985;DHT22;28319;48.116;10.818;2022-11-20T18:53:41;4.30;99.90
41985;DHT22;28319;48.116;10.818;2022-11-20T18:58:45;4.30;99.90
41985;DHT22;28319;48.116;10.818;2022-11-20T19:03:47;4.30;99.90
41985;DHT22;28319;48.116;10.818;2022-11-20T19:08:50;4.40;99.90
41985;DHT22;28319;48.116;10.818;2022-11-20T19:13:55;4.40;99.90
41985;DHT22;28319;48.116;10.818;2022-11-20T19:18:59;4.40;99.90
41985;DHT22;28319;48.116;10.818;2022-11-20T19:24:03;4.30;99.90
41985;DHT22;28319;48.116;10.818;2022-11-20T19:29:11;4.30;99.90
41985;DHT22;28319;48.116;10.818;2022-11-20T19:34:14;4.20;99.90
41985;DHT22;28319;48.116;10.818;2022-11-20T19:39:18;4.40;99.90
41985;DHT22;28319;48.116;10.818;2022-11-20T19:44:23;4.20;99.90
41985;DHT22;28319;48.116;10.818;2022-11-20T19:49:25;4.30;99.90
41985;DHT22;28319;48.116;10.818;2022-11-20T19:54:28;4.30;99.90
41985;DHT22;28319;48.116;10.818;2022-11-20T19:59:31;4.30;99.90
41985;DHT22;28319;48.116;10.818;2022-11-20T20:04:34;4.20;99.90
41985;DHT22;28319;48.116;10.818;2022-11-20T20:09:36;4.20;99.90
41985;DHT22;28319;48.116;10.818;2022-11-20T20:14:39;4.20;99.90
41985;DHT22;28319;48.116;10.818;2022-11-20T20:19:41;4.20;99.90
41985;DHT22;28319;48.116;10.818;2022-11-20T20:24:44;4.20;99.90
41985;DHT22;28319;48.116;10.818;2022-11-20T20:29:49;4.10;99.90
41985;DHT22;28319;48.116;10.818;2022-11-20T20:34:51;4.10;99.90
41985;DHT22;28319;48.116;10.818;2022-11-20T20:39:53;4.10;99.90
41985;DHT22;28319;48.116;10.818;2022-11-20T20:44:57;4.20;99.90
41985;DHT22;28319;48.116;10.818;2022-11-20T20:50:11;4.20;99.90
41985;DHT22;28319;48.116;10.818;2022-11-20T20:55:15;4.30;99.90
41985;DHT22;28319;48.116;10.818;2022-11-20T21:00:19;4.50;99.90
41985;DHT22;28319;48.116;10.818;2022-11-20T21:05:22;4.50;99.90
41985;DHT22;28319;48.116;10.818;2022-11-20T21:10:25;4.40;99.90
41985;DHT22;28319;48.116;10.818;2022-11-20T21:15:29;4.70;99.90
41985;DHT22;28319;48.116;10.818;2022-11-20T21:20:31;4.40;99.90
41985;DHT22;28319;48.116;10.818;2022-11-20T21:25:50;4.40;99.90
41985;DHT22;28319;48.116;10.818;2022-11-20T21:31:01;4.50;99.90
41985;DHT22;28319;48.116;10.818;2022-11-20T21:36:05;4.40;99.90
41985;DHT22;28319;48.116;10.818;2022-11-20T21:41:08;4.40;99.90
41985;DHT22;28319;48.116;10.818;2022-11-20T21:46:15;4.40;99.90
41985;DHT22;28319;48.116;10.818;2022-11-20T21:51:19;4.40;99.90
41985;DHT22;28319;48.116;10.818;2022-11-20T21:56:24;4.40;99.90
41985;DHT22;28319;48.116;10.818;2022-11-20T22:01:29;4.40;99.90
41985;DHT22;28319;48.116;10.818;2022-11-20T22:06:33;4.30;99.90
41985;DHT22;28319;48.116;10.818;2022-11-20T22:11:35;4.10;99.90
41985;DHT22;28319;48.116;10.818;2022-11-20T22:16:40;4.00;99.90
41985;DHT22;28319;48.116;10.818;2022-11-20T22:21:42;3.90;99.90
41985;DHT22;28319;48.116;10.818;2022-11-20T22:26:44;3.90;99.90
41985;DHT22;28319;48.116;10.818;2022-11-20T22:31:50;3.80;99.90
41985;DHT22;28319;48.116;10.818;2022-11-20T22:36:52;3.80;99.90
41985;DHT22;28319;48.116;10.818;2022-11-20T22:41:55;3.70;99.90
41985;DHT22;28319;48.116;10.818;2022-11-20T22:46:59;3.70;99.90
41985;DHT22;28319;48.116;10.818;2022-11-20T22:52:04;3.70;99.90
41985;DHT22;28319;48.116;10.818;2022-11-20T22:57:06;3.70;99.90
41985;DHT22;28319;48.116;10.818;2022-11-20T23:02:10;3.70;99.90
41985;DHT22;28319;48.116;10.818;2022-11-20T23:07:12;3.70;99.90
41985;DHT22;28319;48.116;10.818;2022-11-20T23:12:14;3.70;99.90
41985;DHT22;28319;48.116;10.818;2022-11-20T23:17:18;3.70;99.90
41985;DHT22;28319;48.116;10.818;2022-11-20T23:22:22;3.70;99.90
41985;DHT22;28319;48.116;10.818;2022-11-20T23:27:25;3.70;99.90
41985;DHT22;28319;48.116;10.818;2022-11-20T23:32:28;3.80;99.90
41985;DHT22;28319;48.116;10.818;2022-11-20T23:37:31;3.80;99.90
41985;DHT22;28319;48.116;10.818;2022-11-20T23:42:34;3.80;99.90
41985;DHT22;28319;48.116;10.818;2022-11-20T23:47:40;3.90;99.90
41985;DHT22;28319;48.116;10.818;2022-11-20T23:52:42;3.90;99.90
41985;DHT22;28319;48.116;10.818;2022-11-20T23:57:45;4.00;99.90
